Port Au Choix, Canada
Current Conditions -  °F | °C
As of 7:00 PM on Monday 26 Jan 2015 (Local Time) from CWDH Reporting Station
Scattered Clouds Scattered Clouds  
Wind Chill: -8°   Ceiling: Unl
Heat Index: 13°   Visibility: 4mi
Dew Point:   Wind: 29mph
Humidity: 60%   Direction: 270°W
Pressure: 29.98"   Gusts: 41mph
Location:  50.72°N, 57.37°W
Report Text: CWDH 262200Z AUTO 27025G36KT 4SM SCT028 M11/M17 A2998 RMK SLP153 PK WND 27039/// T11061171 P0002 70022 WSI/SWOB
Loading
Personal Weather Stations






























Interactive Weather Map New forecast layout! Learn more

10-Day Weather Forecast

Advertisements
Track Severe Weather on mobile